sensor_id;sensor_type;location;lat;lon;timestamp;temperature;humidity
69598;SHT31;56802;51.184;-115.558;2022-08-03T00:01:45;23.98;23.94
69598;SHT31;56802;51.184;-115.558;2022-08-03T00:04:15;24.00;24.01
69598;SHT31;56802;51.184;-115.558;2022-08-03T00:06:45;23.95;24.03
69598;SHT31;56802;51.184;-115.558;2022-08-03T00:09:14;23.95;24.27
69598;SHT31;56802;51.184;-115.558;2022-08-03T00:11:44;23.99;23.95
69598;SHT31;56802;51.184;-115.558;2022-08-03T00:14:16;24.06;24.04
69598;SHT31;56802;51.184;-115.558;2022-08-03T00:16:46;24.12;23.50
69598;SHT31;56802;51.184;-115.558;2022-08-03T00:19:15;24.10;23.42
69598;SHT31;56802;51.184;-115.558;2022-08-03T00:21:44;24.14;23.62
69598;SHT31;56802;51.184;-115.558;2022-08-03T00:24:14;24.21;23.34
69598;SHT31;56802;51.184;-115.558;2022-08-03T00:26:43;24.24;22.96
69598;SHT31;56802;51.184;-115.558;2022-08-03T00:29:13;24.22;22.72
69598;SHT31;56802;51.184;-115.558;2022-08-03T00:31:43;24.22;22.63
69598;SHT31;56802;51.184;-115.558;2022-08-03T00:34:26;24.21;22.54
69598;SHT31;56802;51.184;-115.558;2022-08-03T00:37:15;24.09;22.68
69598;SHT31;56802;51.184;-115.558;2022-08-03T00:39:44;23.99;22.74
69598;SHT31;56802;51.184;-115.558;2022-08-03T00:42:14;23.96;22.80
69598;SHT31;56802;51.184;-115.558;2022-08-03T00:44:44;23.89;23.14
69598;SHT31;56802;51.184;-115.558;2022-08-03T00:47:13;23.85;23.30
69598;SHT31;56802;51.184;-115.558;2022-08-03T00:49:43;23.81;23.21
69598;SHT31;56802;51.184;-115.558;2022-08-03T00:52:12;23.72;23.33
69598;SHT31;56802;51.184;-115.558;2022-08-03T00:54:43;23.66;23.32
69598;SHT31;56802;51.184;-115.558;2022-08-03T00:57:13;23.68;23.27
69598;SHT31;56802;51.184;-115.558;2022-08-03T00:59:42;23.69;23.45
69598;SHT31;56802;51.184;-115.558;2022-08-03T01:02:12;23.68;23.51
69598;SHT31;56802;51.184;-115.558;2022-08-03T01:04:42;23.64;23.61
69598;SHT31;56802;51.184;-115.558;2022-08-03T01:07:16;23.58;23.80
69598;SHT31;56802;51.184;-115.558;2022-08-03T01:16:51;23.39;23.64
69598;SHT31;56802;51.184;-115.558;2022-08-03T01:31:27;23.22;24.18
69598;SHT31;56802;51.184;-115.558;2022-08-03T01:34:27;23.21;24.33
69598;SHT31;56802;51.184;-115.558;2022-08-03T01:37:02;23.17;24.37
69598;SHT31;56802;51.184;-115.558;2022-08-03T01:39:35;23.16;24.39
69598;SHT31;56802;51.184;-115.558;2022-08-03T01:42:08;23.14;24.43
69598;SHT31;56802;51.184;-115.558;2022-08-03T01:44:41;23.11;24.43
69598;SHT31;56802;51.184;-115.558;2022-08-03T01:47:15;23.04;24.46
69598;SHT31;56802;51.184;-115.558;2022-08-03T01:49:49;22.95;24.51
69598;SHT31;56802;51.184;-115.558;2022-08-03T01:52:19;22.83;24.68
69598;SHT31;56802;51.184;-115.558;2022-08-03T01:54:50;22.76;24.67
69598;SHT31;56802;51.184;-115.558;2022-08-03T01:57:20;22.75;24.81
69598;SHT31;56802;51.184;-115.558;2022-08-03T01:59:52;22.73;25.05
69598;SHT31;56802;51.184;-115.558;2022-08-03T02:02:24;22.69;25.03
69598;SHT31;56802;51.184;-115.558;2022-08-03T02:05:00;22.67;25.07
69598;SHT31;56802;51.184;-115.558;2022-08-03T02:07:36;22.61;25.44
69598;SHT31;56802;51.184;-115.558;2022-08-03T02:10:10;22.53;25.54
69598;SHT31;56802;51.184;-115.558;2022-08-03T02:13:00;22.42;25.87
69598;SHT31;56802;51.184;-115.558;2022-08-03T02:15:32;22.33;25.70
69598;SHT31;56802;51.184;-115.558;2022-08-03T02:18:04;22.23;25.55
69598;SHT31;56802;51.184;-115.558;2022-08-03T02:20:37;22.17;25.55
69598;SHT31;56802;51.184;-115.558;2022-08-03T02:23:10;22.09;25.73
69598;SHT31;56802;51.184;-115.558;2022-08-03T02:25:47;22.01;25.86
69598;SHT31;56802;51.184;-115.558;2022-08-03T02:28:31;21.93;25.89
69598;SHT31;56802;51.184;-115.558;2022-08-03T02:31:15;21.88;25.95
69598;SHT31;56802;51.184;-115.558;2022-08-03T02:33:56;21.80;26.07
69598;SHT31;56802;51.184;-115.558;2022-08-03T02:36:32;21.75;26.13
69598;SHT31;56802;51.184;-115.558;2022-08-03T02:39:06;21.72;26.16
69598;SHT31;56802;51.184;-115.558;2022-08-03T02:41:42;21.69;26.35
69598;SHT31;56802;51.184;-115.558;2022-08-03T02:44:24;21.65;26.41
69598;SHT31;56802;51.184;-115.558;2022-08-03T02:46:56;21.60;26.26
69598;SHT31;56802;51.184;-115.558;2022-08-03T02:49:31;21.54;26.48
69598;SHT31;56802;51.184;-115.558;2022-08-03T02:52:20;21.47;26.51
69598;SHT31;56802;51.184;-115.558;2022-08-03T02:54:59;21.43;26.44
69598;SHT31;56802;51.184;-115.558;2022-08-03T02:57:30;21.38;26.52
69598;SHT31;56802;51.184;-115.558;2022-08-03T03:00:03;21.33;26.60
69598;SHT31;56802;51.184;-115.558;2022-08-03T03:02:34;21.28;26.49
69598;SHT31;56802;51.184;-115.558;2022-08-03T03:05:10;21.25;26.53
69598;SHT31;56802;51.184;-115.558;2022-08-03T03:08:00;21.21;26.72
69598;SHT31;56802;51.184;-115.558;2022-08-03T03:10:43;21.14;26.62
69598;SHT31;56802;51.184;-115.558;2022-08-03T03:13:18;21.09;26.67
69598;SHT31;56802;51.184;-115.558;2022-08-03T03:15:50;21.04;26.68
69598;SHT31;56802;51.184;-115.558;2022-08-03T03:18:24;21.00;26.91
69598;SHT31;56802;51.184;-115.558;2022-08-03T03:20:58;20.96;27.11
69598;SHT31;56802;51.184;-115.558;2022-08-03T03:23:31;20.89;27.27
69598;SHT31;56802;51.184;-115.558;2022-08-03T03:26:05;20.84;27.40
69598;SHT31;56802;51.184;-115.558;2022-08-03T03:28:35;20.79;27.50
69598;SHT31;56802;51.184;-115.558;2022-08-03T03:31:05;20.73;27.89
69598;SHT31;56802;51.184;-115.558;2022-08-03T03:33:35;20.65;28.37
69598;SHT31;56802;51.184;-115.558;2022-08-03T03:36:06;20.55;28.62
69598;SHT31;56802;51.184;-115.558;2022-08-03T03:38:36;20.45;28.99
69598;SHT31;56802;51.184;-115.558;2022-08-03T03:41:05;20.37;29.21
69598;SHT31;56802;51.184;-115.558;2022-08-03T03:43:35;20.29;29.29
69598;SHT31;56802;51.184;-115.558;2022-08-03T03:46:04;20.21;29.44
69598;SHT31;56802;51.184;-115.558;2022-08-03T03:48:34;20.13;29.71
69598;SHT31;56802;51.184;-115.558;2022-08-03T03:51:06;20.04;29.96
69598;SHT31;56802;51.184;-115.558;2022-08-03T03:53:37;19.97;30.06
69598;SHT31;56802;51.184;-115.558;2022-08-03T03:56:06;19.91;30.14
69598;SHT31;56802;51.184;-115.558;2022-08-03T03:58:35;19.84;30.17
69598;SHT31;56802;51.184;-115.558;2022-08-03T04:01:05;19.77;30.27
69598;SHT31;56802;51.184;-115.558;2022-08-03T04:03:35;19.70;30.43
69598;SHT31;56802;51.184;-115.558;2022-08-03T04:06:04;19.62;30.58
69598;SHT31;56802;51.184;-115.558;2022-08-03T04:08:52;19.54;30.84
69598;SHT31;56802;51.184;-115.558;2022-08-03T04:11:41;19.46;30.86
69598;SHT31;56802;51.184;-115.558;2022-08-03T04:17:01;19.31;31.42
69598;SHT31;56802;51.184;-115.558;2022-08-03T04:19:36;19.22;31.59
69598;SHT31;56802;51.184;-115.558;2022-08-03T04:22:15;19.16;31.69
69598;SHT31;56802;51.184;-115.558;2022-08-03T04:24:50;19.12;31.97
69598;SHT31;56802;51.184;-115.558;2022-08-03T04:27:33;19.06;32.14
69598;SHT31;56802;51.184;-115.558;2022-08-03T04:30:07;18.99;32.06
69598;SHT31;56802;51.184;-115.558;2022-08-03T04:32:37;18.93;32.08
69598;SHT31;56802;51.184;-115.558;2022-08-03T04:35:11;18.87;31.96
69598;SHT31;56802;51.184;-115.558;2022-08-03T04:37:41;18.78;32.21
69598;SHT31;56802;51.184;-115.558;2022-08-03T04:40:26;18.71;32.41
69598;SHT31;56802;51.184;-115.558;2022-08-03T04:43:05;18.68;32.55
69598;SHT31;56802;51.184;-115.558;2022-08-03T04:45:38;18.61;32.67
69598;SHT31;56802;51.184;-115.558;2022-08-03T04:48:09;18.49;32.97
69598;SHT31;56802;51.184;-115.558;2022-08-03T04:50:39;18.40;33.22
69598;SHT31;56802;51.184;-115.558;2022-08-03T04:53:09;18.34;33.37
69598;SHT31;56802;51.184;-115.558;2022-08-03T04:55:39;18.29;33.44
69598;SHT31;56802;51.184;-115.558;2022-08-03T04:58:08;18.25;33.52
69598;SHT31;56802;51.184;-115.558;2022-08-03T05:00:39;18.21;33.70
69598;SHT31;56802;51.184;-115.558;2022-08-03T05:03:09;18.15;33.81
69598;SHT31;56802;51.184;-115.558;2022-08-03T05:05:53;18.10;34.01
69598;SHT31;56802;51.184;-115.558;2022-08-03T05:08:37;18.03;34.26
69598;SHT31;56802;51.184;-115.558;2022-08-03T05:11:15;17.98;34.47
69598;SHT31;56802;51.184;-115.558;2022-08-03T05:13:44;17.93;34.68
69598;SHT31;56802;51.184;-115.558;2022-08-03T05:16:14;17.85;34.87
69598;SHT31;56802;51.184;-115.558;2022-08-03T05:18:43;17.80;35.04
69598;SHT31;56802;51.184;-115.558;2022-08-03T05:21:12;17.76;35.15
69598;SHT31;56802;51.184;-115.558;2022-08-03T05:23:43;17.73;35.18
69598;SHT31;56802;51.184;-115.558;2022-08-03T05:26:13;17.70;35.18
69598;SHT31;56802;51.184;-115.558;2022-08-03T05:28:43;17.63;35.20
69598;SHT31;56802;51.184;-115.558;2022-08-03T05:31:17;17.57;35.19
69598;SHT31;56802;51.184;-115.558;2022-08-03T05:33:46;17.52;35.26
69598;SHT31;56802;51.184;-115.558;2022-08-03T05:36:16;17.48;35.30
69598;SHT31;56802;51.184;-115.558;2022-08-03T05:38:45;17.46;35.35
69598;SHT31;56802;51.184;-115.558;2022-08-03T05:41:14;17.44;35.53
69598;SHT31;56802;51.184;-115.558;2022-08-03T05:43:50;17.40;35.84
69598;SHT31;56802;51.184;-115.558;2022-08-03T05:46:21;17.37;35.93
69598;SHT31;56802;51.184;-115.558;2022-08-03T05:48:50;17.33;36.40
69598;SHT31;56802;51.184;-115.558;2022-08-03T05:51:21;17.30;37.30
69598;SHT31;56802;51.184;-115.558;2022-08-03T05:53:50;17.28;38.11
69598;SHT31;56802;51.184;-115.558;2022-08-03T05:56:23;17.25;38.42
69598;SHT31;56802;51.184;-115.558;2022-08-03T05:58:53;17.19;38.94
69598;SHT31;56802;51.184;-115.558;2022-08-03T06:01:22;17.14;39.70
69598;SHT31;56802;51.184;-115.558;2022-08-03T06:03:52;17.08;40.07
69598;SHT31;56802;51.184;-115.558;2022-08-03T06:06:21;17.02;39.97
69598;SHT31;56802;51.184;-115.558;2022-08-03T06:08:56;16.97;39.81
69598;SHT31;56802;51.184;-115.558;2022-08-03T06:11:25;16.92;40.23
69598;SHT31;56802;51.184;-115.558;2022-08-03T06:13:55;16.89;42.11
69598;SHT31;56802;51.184;-115.558;2022-08-03T06:16:24;16.86;41.34
69598;SHT31;56802;51.184;-115.558;2022-08-03T06:18:54;16.86;41.39
69598;SHT31;56802;51.184;-115.558;2022-08-03T06:21:23;16.83;41.79
69598;SHT31;56802;51.184;-115.558;2022-08-03T06:23:53;16.80;42.02
69598;SHT31;56802;51.184;-115.558;2022-08-03T06:26:23;16.76;40.84
69598;SHT31;56802;51.184;-115.558;2022-08-03T06:28:55;16.72;40.09
69598;SHT31;56802;51.184;-115.558;2022-08-03T06:31:25;16.68;40.31
69598;SHT31;56802;51.184;-115.558;2022-08-03T06:33:59;16.64;40.28
69598;SHT31;56802;51.184;-115.558;2022-08-03T06:36:51;16.62;39.87
69598;SHT31;56802;51.184;-115.558;2022-08-03T06:39:27;16.57;39.08
69598;SHT31;56802;51.184;-115.558;2022-08-03T06:41:57;16.52;38.99
69598;SHT31;56802;51.184;-115.558;2022-08-03T06:44:26;16.51;38.67
69598;SHT31;56802;51.184;-115.558;2022-08-03T06:46:56;16.51;38.77
69598;SHT31;56802;51.184;-115.558;2022-08-03T06:49:25;16.46;38.79
69598;SHT31;56802;51.184;-115.558;2022-08-03T06:51:54;16.39;38.86
69598;SHT31;56802;51.184;-115.558;2022-08-03T06:54:32;16.35;38.71
69598;SHT31;56802;51.184;-115.558;2022-08-03T06:57:02;16.32;38.22
69598;SHT31;56802;51.184;-115.558;2022-08-03T06:59:33;16.30;38.24
69598;SHT31;56802;51.184;-115.558;2022-08-03T07:02:22;16.27;39.21
69598;SHT31;56802;51.184;-115.558;2022-08-03T07:04:54;16.22;41.83
69598;SHT31;56802;51.184;-115.558;2022-08-03T07:07:23;16.17;41.91
69598;SHT31;56802;51.184;-115.558;2022-08-03T07:09:56;16.12;41.16
69598;SHT31;56802;51.184;-115.558;2022-08-03T07:12:28;16.09;40.94
69598;SHT31;56802;51.184;-115.558;2022-08-03T07:14:58;16.07;40.77
69598;SHT31;56802;51.184;-115.558;2022-08-03T07:17:30;16.02;41.20
69598;SHT31;56802;51.184;-115.558;2022-08-03T07:20:04;15.96;40.98
69598;SHT31;56802;51.184;-115.558;2022-08-03T07:22:35;15.91;41.06
69598;SHT31;56802;51.184;-115.558;2022-08-03T07:25:05;15.82;41.38
69598;SHT31;56802;51.184;-115.558;2022-08-03T07:27:35;15.76;41.72
69598;SHT31;56802;51.184;-115.558;2022-08-03T07:30:05;15.71;41.68
69598;SHT31;56802;51.184;-115.558;2022-08-03T07:32:36;15.66;41.66
69598;SHT31;56802;51.184;-115.558;2022-08-03T07:35:16;15.57;41.80
69598;SHT31;56802;51.184;-115.558;2022-08-03T07:37:51;15.55;41.96
69598;SHT31;56802;51.184;-115.558;2022-08-03T07:40:23;15.50;42.28
69598;SHT31;56802;51.184;-115.558;2022-08-03T07:42:58;15.42;42.87
69598;SHT31;56802;51.184;-115.558;2022-08-03T07:45:30;15.33;43.27
69598;SHT31;56802;51.184;-115.558;2022-08-03T07:47:59;15.31;43.40
69598;SHT31;56802;51.184;-115.558;2022-08-03T07:50:34;15.32;42.97
69598;SHT31;56802;51.184;-115.558;2022-08-03T07:53:03;15.32;42.64
69598;SHT31;56802;51.184;-115.558;2022-08-03T07:55:32;15.32;42.68
69598;SHT31;56802;51.184;-115.558;2022-08-03T07:58:03;15.29;42.73
69598;SHT31;56802;51.184;-115.558;2022-08-03T08:00:49;15.22;43.06
69598;SHT31;56802;51.184;-115.558;2022-08-03T08:03:19;15.18;43.32
69598;SHT31;56802;51.184;-115.558;2022-08-03T08:05:49;15.12;43.51
69598;SHT31;56802;51.184;-115.558;2022-08-03T08:08:18;15.07;43.97
69598;SHT31;56802;51.184;-115.558;2022-08-03T08:10:48;15.07;43.80
69598;SHT31;56802;51.184;-115.558;2022-08-03T08:13:24;15.02;43.74
69598;SHT31;56802;51.184;-115.558;2022-08-03T08:15:53;14.98;44.13
69598;SHT31;56802;51.184;-115.558;2022-08-03T08:18:23;14.94;44.24
69598;SHT31;56802;51.184;-115.558;2022-08-03T08:20:56;14.90;44.66
69598;SHT31;56802;51.184;-115.558;2022-08-03T08:23:28;14.86;44.42
69598;SHT31;56802;51.184;-115.558;2022-08-03T08:26:09;14.82;44.46
69598;SHT31;56802;51.184;-115.558;2022-08-03T08:28:39;14.73;44.98
69598;SHT31;56802;51.184;-115.558;2022-08-03T08:31:09;14.64;45.22
69598;SHT31;56802;51.184;-115.558;2022-08-03T08:33:38;14.55;45.40
69598;SHT31;56802;51.184;-115.558;2022-08-03T08:36:27;14.44;45.45
69598;SHT31;56802;51.184;-115.558;2022-08-03T08:39:00;14.44;45.56
69598;SHT31;56802;51.184;-115.558;2022-08-03T08:41:30;14.42;45.89
69598;SHT31;56802;51.184;-115.558;2022-08-03T08:44:11;14.42;45.99
69598;SHT31;56802;51.184;-115.558;2022-08-03T08:46:40;14.39;45.97
69598;SHT31;56802;51.184;-115.558;2022-08-03T08:49:10;14.35;46.08
69598;SHT31;56802;51.184;-115.558;2022-08-03T08:51:45;14.30;46.16
69598;SHT31;56802;51.184;-115.558;2022-08-03T08:54:26;14.22;46.52
69598;SHT31;56802;51.184;-115.558;2022-08-03T08:57:01;14.21;46.63
69598;SHT31;56802;51.184;-115.558;2022-08-03T08:59:52;14.16;46.65
69598;SHT31;56802;51.184;-115.558;2022-08-03T09:02:24;14.09;46.76
69598;SHT31;56802;51.184;-115.558;2022-08-03T09:04:58;14.05;46.97
69598;SHT31;56802;51.184;-115.558;2022-08-03T09:07:33;14.03;47.31
69598;SHT31;56802;51.184;-115.558;2022-08-03T09:10:03;14.04;47.21
69598;SHT31;56802;51.184;-115.558;2022-08-03T09:12:42;14.02;47.39
69598;SHT31;56802;51.184;-115.558;2022-08-03T09:15:18;14.00;47.49
69598;SHT31;56802;51.184;-115.558;2022-08-03T09:17:55;13.94;47.55
69598;SHT31;56802;51.184;-115.558;2022-08-03T09:20:27;13.85;47.66
69598;SHT31;56802;51.184;-115.558;2022-08-03T09:23:00;13.83;47.83
69598;SHT31;56802;51.184;-115.558;2022-08-03T09:25:57;13.79;47.93
69598;SHT31;56802;51.184;-115.558;2022-08-03T09:28:32;13.78;47.81
69598;SHT31;56802;51.184;-115.558;2022-08-03T09:31:29;13.77;47.76
69598;SHT31;56802;51.184;-115.558;2022-08-03T09:34:01;13.79;47.73
69598;SHT31;56802;51.184;-115.558;2022-08-03T09:39:13;13.81;48.03
69598;SHT31;56802;51.184;-115.558;2022-08-03T09:42:08;13.74;48.13
69598;SHT31;56802;51.184;-115.558;2022-08-03T09:44:50;13.65;48.21
69598;SHT31;56802;51.184;-115.558;2022-08-03T09:47:27;13.65;48.24
69598;SHT31;56802;51.184;-115.558;2022-08-03T09:50:10;13.68;48.00
69598;SHT31;56802;51.184;-115.558;2022-08-03T09:52:40;13.70;47.94
69598;SHT31;56802;51.184;-115.558;2022-08-03T09:55:18;13.72;47.89
69598;SHT31;56802;51.184;-115.558;2022-08-03T09:58:08;13.75;47.91
69598;SHT31;56802;51.184;-115.558;2022-08-03T10:00:53;13.76;47.62
69598;SHT31;56802;51.184;-115.558;2022-08-03T10:03:29;13.75;47.42
69598;SHT31;56802;51.184;-115.558;2022-08-03T10:06:23;13.75;47.29
69598;SHT31;56802;51.184;-115.558;2022-08-03T10:09:08;13.76;47.05
69598;SHT31;56802;51.184;-115.558;2022-08-03T10:11:39;13.78;47.26
69598;SHT31;56802;51.184;-115.558;2022-08-03T10:14:11;13.76;47.20
69598;SHT31;56802;51.184;-115.558;2022-08-03T10:16:46;13.77;46.99
69598;SHT31;56802;51.184;-115.558;2022-08-03T10:19:16;13.76;46.98
69598;SHT31;56802;51.184;-115.558;2022-08-03T10:21:49;13.75;47.20
69598;SHT31;56802;51.184;-115.558;2022-08-03T10:24:25;13.74;47.37
69598;SHT31;56802;51.184;-115.558;2022-08-03T10:27:01;13.73;47.37
69598;SHT31;56802;51.184;-115.558;2022-08-03T10:29:38;13.71;47.15
69598;SHT31;56802;51.184;-115.558;2022-08-03T10:32:17;13.69;47.04
69598;SHT31;56802;51.184;-115.558;2022-08-03T10:35:07;13.66;47.03
69598;SHT31;56802;51.184;-115.558;2022-08-03T10:38:08;13.64;47.16
69598;SHT31;56802;51.184;-115.558;2022-08-03T10:40:41;13.62;47.22
69598;SHT31;56802;51.184;-115.558;2022-08-03T10:43:35;13.61;47.19
69598;SHT31;56802;51.184;-115.558;2022-08-03T10:46:40;13.56;47.54
69598;SHT31;56802;51.184;-115.558;2022-08-03T10:49:11;13.54;47.60
69598;SHT31;56802;51.184;-115.558;2022-08-03T10:51:59;13.50;48.15
69598;SHT31;56802;51.184;-115.558;2022-08-03T10:54:49;13.47;48.84
69598;SHT31;56802;51.184;-115.558;2022-08-03T11:00:24;13.36;49.38
69598;SHT31;56802;51.184;-115.558;2022-08-03T11:03:10;13.31;49.25
69598;SHT31;56802;51.184;-115.558;2022-08-03T11:05:47;13.29;48.73
69598;SHT31;56802;51.184;-115.558;2022-08-03T11:08:20;13.30;48.61
69598;SHT31;56802;51.184;-115.558;2022-08-03T11:16:39;13.30;48.89
69598;SHT31;56802;51.184;-115.558;2022-08-03T11:19:14;13.29;49.10
69598;SHT31;56802;51.184;-115.558;2022-08-03T11:21:55;13.26;49.23
69598;SHT31;56802;51.184;-115.558;2022-08-03T11:27:16;13.22;49.56
69598;SHT31;56802;51.184;-115.558;2022-08-03T11:29:54;13.22;49.78
69598;SHT31;56802;51.184;-115.558;2022-08-03T11:32:53;13.22;49.84
69598;SHT31;56802;51.184;-115.558;2022-08-03T11:38:10;13.14;50.27
69598;SHT31;56802;51.184;-115.558;2022-08-03T11:51:05;13.02;49.92
69598;SHT31;56802;51.184;-115.558;2022-08-03T11:53:54;13.00;50.14
69598;SHT31;56802;51.184;-115.558;2022-08-03T11:56:42;12.94;50.38
69598;SHT31;56802;51.184;-115.558;2022-08-03T11:59:17;12.88;50.48
69598;SHT31;56802;51.184;-115.558;2022-08-03T12:02:11;12.83;50.47
69598;SHT31;56802;51.184;-115.558;2022-08-03T12:04:51;12.79;50.47
69598;SHT31;56802;51.184;-115.558;2022-08-03T12:07:29;12.76;50.49
69598;SHT31;56802;51.184;-115.558;2022-08-03T12:10:18;12.74;50.54
69598;SHT31;56802;51.184;-115.558;2022-08-03T12:12:53;12.72;50.62
69598;SHT31;56802;51.184;-115.558;2022-08-03T12:15:25;12.69;50.58
69598;SHT31;56802;51.184;-115.558;2022-08-03T12:17:57;12.69;50.49
69598;SHT31;56802;51.184;-115.558;2022-08-03T12:20:30;12.66;50.49
69598;SHT31;56802;51.184;-115.558;2022-08-03T12:23:04;12.65;50.56
69598;SHT31;56802;51.184;-115.558;2022-08-03T12:25:35;12.61;50.67
69598;SHT31;56802;51.184;-115.558;2022-08-03T12:28:08;12.58;50.69
69598;SHT31;56802;51.184;-115.558;2022-08-03T12:31:03;12.56;50.69
69598;SHT31;56802;51.184;-115.558;2022-08-03T12:33:55;12.50;50.83
69598;SHT31;56802;51.184;-115.558;2022-08-03T12:36:31;12.49;50.82
69598;SHT31;56802;51.184;-115.558;2022-08-03T12:39:03;12.48;50.88
69598;SHT31;56802;51.184;-115.558;2022-08-03T12:41:37;12.48;51.01
69598;SHT31;56802;51.184;-115.558;2022-08-03T12:44:08;12.44;51.10
69598;SHT31;56802;51.184;-115.558;2022-08-03T12:46:38;12.44;51.17
69598;SHT31;56802;51.184;-115.558;2022-08-03T12:49:14;12.42;51.25
69598;SHT31;56802;51.184;-115.558;2022-08-03T12:51:54;12.43;51.25
69598;SHT31;56802;51.184;-115.558;2022-08-03T12:54:33;12.49;51.37
69598;SHT31;56802;51.184;-115.558;2022-08-03T12:59:35;12.52;51.38
69598;SHT31;56802;51.184;-115.558;2022-08-03T13:02:23;12.53;51.43
69598;SHT31;56802;51.184;-115.558;2022-08-03T13:04:54;12.54;51.46
69598;SHT31;56802;51.184;-115.558;2022-08-03T13:07:23;12.52;51.45
69598;SHT31;56802;51.184;-115.558;2022-08-03T13:09:53;12.55;51.52
69598;SHT31;56802;51.184;-115.558;2022-08-03T13:12:25;12.57;51.81
69598;SHT31;56802;51.184;-115.558;2022-08-03T13:14:59;12.56;52.17
69598;SHT31;56802;51.184;-115.558;2022-08-03T13:17:28;12.53;52.40
69598;SHT31;56802;51.184;-115.558;2022-08-03T13:19:58;12.52;52.61
69598;SHT31;56802;51.184;-115.558;2022-08-03T13:22:28;12.48;52.74
69598;SHT31;56802;51.184;-115.558;2022-08-03T13:24:58;12.46;52.92
69598;SHT31;56802;51.184;-115.558;2022-08-03T13:27:40;12.42;52.91
69598;SHT31;56802;51.184;-115.558;2022-08-03T13:30:29;12.38;52.97
69598;SHT31;56802;51.184;-115.558;2022-08-03T13:32:59;12.37;52.90
69598;SHT31;56802;51.184;-115.558;2022-08-03T13:35:28;12.36;52.95
69598;SHT31;56802;51.184;-115.558;2022-08-03T13:37:57;12.33;53.06
69598;SHT31;56802;51.184;-115.558;2022-08-03T13:40:27;12.30;53.03
69598;SHT31;56802;51.184;-115.558;2022-08-03T13:43:08;12.28;52.82
69598;SHT31;56802;51.184;-115.558;2022-08-03T13:45:37;12.25;52.94
69598;SHT31;56802;51.184;-115.558;2022-08-03T13:48:13;12.24;52.99
69598;SHT31;56802;51.184;-115.558;2022-08-03T13:51:02;12.25;52.99
69598;SHT31;56802;51.184;-115.558;2022-08-03T13:53:48;12.21;53.15
69598;SHT31;56802;51.184;-115.558;2022-08-03T13:56:19;12.22;53.29
69598;SHT31;56802;51.184;-115.558;2022-08-03T13:58:48;12.24;53.33
69598;SHT31;56802;51.184;-115.558;2022-08-03T14:01:17;12.24;53.24
69598;SHT31;56802;51.184;-115.558;2022-08-03T14:04:06;12.27;53.15
69598;SHT31;56802;51.184;-115.558;2022-08-03T14:06:47;12.30;53.04
69598;SHT31;56802;51.184;-115.558;2022-08-03T14:09:17;12.34;52.94
69598;SHT31;56802;51.184;-115.558;2022-08-03T14:11:47;12.40;52.89
69598;SHT31;56802;51.184;-115.558;2022-08-03T14:14:34;12.48;52.74
69598;SHT31;56802;51.184;-115.558;2022-08-03T14:17:04;12.59;52.60
69598;SHT31;56802;51.184;-115.558;2022-08-03T14:19:33;12.71;52.49
69598;SHT31;56802;51.184;-115.558;2022-08-03T14:22:19;12.84;52.26
69598;SHT31;56802;51.184;-115.558;2022-08-03T14:24:49;12.95;51.98
69598;SHT31;56802;51.184;-115.558;2022-08-03T14:27:18;13.03;51.88
69598;SHT31;56802;51.184;-115.558;2022-08-03T14:29:48;13.12;51.80
69598;SHT31;56802;51.184;-115.558;2022-08-03T14:32:17;13.20;51.80
69598;SHT31;56802;51.184;-115.558;2022-08-03T14:34:47;13.30;51.73
69598;SHT31;56802;51.184;-115.558;2022-08-03T14:37:17;13.37;51.55
69598;SHT31;56802;51.184;-115.558;2022-08-03T14:39:47;13.48;51.44
69598;SHT31;56802;51.184;-115.558;2022-08-03T14:42:26;13.59;51.28
69598;SHT31;56802;51.184;-115.558;2022-08-03T14:44:55;13.68;51.13
69598;SHT31;56802;51.184;-115.558;2022-08-03T14:47:35;13.83;50.96
69598;SHT31;56802;51.184;-115.558;2022-08-03T14:50:24;13.96;50.67
69598;SHT31;56802;51.184;-115.558;2022-08-03T14:53:09;14.10;50.53
69598;SHT31;56802;51.184;-115.558;2022-08-03T14:55:39;14.22;50.03
69598;SHT31;56802;51.184;-115.558;2022-08-03T14:58:20;14.32;49.66
69598;SHT31;56802;51.184;-115.558;2022-08-03T15:00:53;14.42;49.45
69598;SHT31;56802;51.184;-115.558;2022-08-03T15:03:23;14.51;49.16
69598;SHT31;56802;51.184;-115.558;2022-08-03T15:05:54;14.63;49.05
69598;SHT31;56802;51.184;-115.558;2022-08-03T15:08:24;14.72;49.19
69598;SHT31;56802;51.184;-115.558;2022-08-03T15:10:54;14.84;48.83
69598;SHT31;56802;51.184;-115.558;2022-08-03T15:13:23;14.96;48.72
69598;SHT31;56802;51.184;-115.558;2022-08-03T15:15:53;15.11;48.75
69598;SHT31;56802;51.184;-115.558;2022-08-03T15:18:25;15.25;48.50
69598;SHT31;56802;51.184;-115.558;2022-08-03T15:20:55;15.37;48.43
69598;SHT31;56802;51.184;-115.558;2022-08-03T15:23:27;15.50;48.49
69598;SHT31;56802;51.184;-115.558;2022-08-03T15:25:56;15.61;47.96
69598;SHT31;56802;51.184;-115.558;2022-08-03T15:28:45;15.72;47.80
69598;SHT31;56802;51.184;-115.558;2022-08-03T15:31:19;15.82;47.49
69598;SHT31;56802;51.184;-115.558;2022-08-03T15:33:50;15.93;47.34
69598;SHT31;56802;51.184;-115.558;2022-08-03T15:36:19;16.03;47.22
69598;SHT31;56802;51.184;-115.558;2022-08-03T15:38:49;16.10;47.05
69598;SHT31;56802;51.184;-115.558;2022-08-03T15:41:21;16.21;47.07
69598;SHT31;56802;51.184;-115.558;2022-08-03T15:43:51;16.35;47.22
69598;SHT31;56802;51.184;-115.558;2022-08-03T15:46:20;16.52;46.20
69598;SHT31;56802;51.184;-115.558;2022-08-03T15:48:55;16.69;46.09
69598;SHT31;56802;51.184;-115.558;2022-08-03T15:51:25;16.85;46.56
69598;SHT31;56802;51.184;-115.558;2022-08-03T15:53:54;17.04;45.67
69598;SHT31;56802;51.184;-115.558;2022-08-03T15:56:23;17.21;44.94
69598;SHT31;56802;51.184;-115.558;2022-08-03T15:58:54;17.40;44.87
69598;SHT31;56802;51.184;-115.558;2022-08-03T16:01:39;17.62;44.32
69598;SHT31;56802;51.184;-115.558;2022-08-03T16:04:09;17.85;43.70
69598;SHT31;56802;51.184;-115.558;2022-08-03T16:06:39;18.03;43.22
69598;SHT31;56802;51.184;-115.558;2022-08-03T16:09:08;18.17;42.89
69598;SHT31;56802;51.184;-115.558;2022-08-03T16:11:58;18.28;42.47
69598;SHT31;56802;51.184;-115.558;2022-08-03T16:14:27;18.42;42.19
69598;SHT31;56802;51.184;-115.558;2022-08-03T16:17:12;18.63;42.32
69598;SHT31;56802;51.184;-115.558;2022-08-03T16:19:42;18.75;42.56
69598;SHT31;56802;51.184;-115.558;2022-08-03T16:22:11;18.85;42.33
69598;SHT31;56802;51.184;-115.558;2022-08-03T16:24:40;18.98;41.55